sensor_id;sensor_type;location;lat;lon;timestamp;P1;durP1;ratioP1;P2;durP2;ratioP2
24901;SDS011;31328;51.402;0.016;2022-10-29T00:00:39;5.32;;;1.42;;
24901;SDS011;31328;51.402;0.016;2022-10-29T00:03:06;3.60;;;1.58;;
24901;SDS011;31328;51.402;0.016;2022-10-29T00:05:33;6.75;;;2.38;;
24901;SDS011;31328;51.402;0.016;2022-10-29T00:07:59;4.22;;;1.30;;
24901;SDS011;31328;51.402;0.016;2022-10-29T00:10:26;7.90;;;1.42;;
24901;SDS011;31328;51.402;0.016;2022-10-29T00:12:54;9.48;;;1.52;;
24901;SDS011;31328;51.402;0.016;2022-10-29T00:15:20;6.63;;;2.22;;
24901;SDS011;31328;51.402;0.016;2022-10-29T00:17:47;4.60;;;1.67;;
24901;SDS011;31328;51.402;0.016;2022-10-29T00:20:13;6.03;;;1.50;;
24901;SDS011;31328;51.402;0.016;2022-10-29T00:22:39;3.95;;;1.75;;
24901;SDS011;31328;51.402;0.016;2022-10-29T00:25:06;2.75;;;1.60;;
24901;SDS011;31328;51.402;0.016;2022-10-29T00:27:32;6.13;;;1.63;;
24901;SDS011;31328;51.402;0.016;2022-10-29T00:29:58;5.88;;;1.98;;
24901;SDS011;31328;51.402;0.016;2022-10-29T00:32:25;7.25;;;1.40;;
24901;SDS011;31328;51.402;0.016;2022-10-29T00:34:51;7.18;;;1.60;;
24901;SDS011;31328;51.402;0.016;2022-10-29T00:37:17;8.45;;;1.95;;
24901;SDS011;31328;51.402;0.016;2022-10-29T00:39:44;10.27;;;2.25;;
24901;SDS011;31328;51.402;0.016;2022-10-29T00:42:14;10.73;;;2.05;;
24901;SDS011;31328;51.402;0.016;2022-10-29T00:44:41;8.27;;;1.50;;
24901;SDS011;31328;51.402;0.016;2022-10-29T00:49:57;6.95;;;1.60;;
24901;SDS011;31328;51.402;0.016;2022-10-29T00:52:26;5.70;;;1.55;;
24901;SDS011;31328;51.402;0.016;2022-10-29T00:54:55;3.80;;;1.45;;
24901;SDS011;31328;51.402;0.016;2022-10-29T00:57:26;11.07;;;1.58;;
24901;SDS011;31328;51.402;0.016;2022-10-29T00:59:56;6.53;;;1.75;;
24901;SDS011;31328;51.402;0.016;2022-10-29T01:02:23;5.60;;;2.25;;
24901;SDS011;31328;51.402;0.016;2022-10-29T01:04:51;5.35;;;1.35;;
24901;SDS011;31328;51.402;0.016;2022-10-29T01:07:19;5.97;;;1.88;;
24901;SDS011;31328;51.402;0.016;2022-10-29T01:09:47;4.93;;;2.38;;
24901;SDS011;31328;51.402;0.016;2022-10-29T01:12:50;5.40;;;2.33;;
24901;SDS011;31328;51.402;0.016;2022-10-29T01:23:39;5.10;;;1.63;;
24901;SDS011;31328;51.402;0.016;2022-10-29T01:29:10;6.50;;;1.95;;
24901;SDS011;31328;51.402;0.016;2022-10-29T01:31:59;5.40;;;2.25;;
24901;SDS011;31328;51.402;0.016;2022-10-29T01:34:36;4.28;;;1.33;;
24901;SDS011;31328;51.402;0.016;2022-10-29T01:39:54;7.00;;;1.58;;
24901;SDS011;31328;51.402;0.016;2022-10-29T01:42:32;3.80;;;1.23;;
24901;SDS011;31328;51.402;0.016;2022-10-29T01:47:38;6.75;;;1.40;;
24901;SDS011;31328;51.402;0.016;2022-10-29T01:50:08;4.82;;;1.10;;
24901;SDS011;31328;51.402;0.016;2022-10-29T01:52:38;5.30;;;1.10;;
24901;SDS011;31328;51.402;0.016;2022-10-29T01:55:06;5.18;;;1.23;;
24901;SDS011;31328;51.402;0.016;2022-10-29T01:57:33;9.45;;;1.70;;
24901;SDS011;31328;51.402;0.016;2022-10-29T02:00:19;6.90;;;1.52;;
24901;SDS011;31328;51.402;0.016;2022-10-29T02:10:46;7.55;;;1.98;;
24901;SDS011;31328;51.402;0.016;2022-10-29T02:13:15;5.60;;;1.25;;
24901;SDS011;31328;51.402;0.016;2022-10-29T02:15:45;6.10;;;1.48;;
24901;SDS011;31328;51.402;0.016;2022-10-29T02:18:15;4.43;;;1.45;;
24901;SDS011;31328;51.402;0.016;2022-10-29T02:20:42;6.80;;;1.70;;
24901;SDS011;31328;51.402;0.016;2022-10-29T02:23:10;4.25;;;0.95;;
24901;SDS011;31328;51.402;0.016;2022-10-29T02:25:36;6.20;;;1.85;;
24901;SDS011;31328;51.402;0.016;2022-10-29T02:28:03;5.95;;;1.60;;
24901;SDS011;31328;51.402;0.016;2022-10-29T02:30:29;3.67;;;1.73;;
24901;SDS011;31328;51.402;0.016;2022-10-29T02:32:56;3.67;;;0.80;;
24901;SDS011;31328;51.402;0.016;2022-10-29T02:35:22;3.88;;;1.05;;
24901;SDS011;31328;51.402;0.016;2022-10-29T02:37:48;5.68;;;1.15;;
24901;SDS011;31328;51.402;0.016;2022-10-29T02:40:15;3.08;;;1.10;;
24901;SDS011;31328;51.402;0.016;2022-10-29T02:42:41;3.58;;;1.15;;
24901;SDS011;31328;51.402;0.016;2022-10-29T02:45:07;5.35;;;1.20;;
24901;SDS011;31328;51.402;0.016;2022-10-29T02:47:34;6.43;;;1.35;;
24901;SDS011;31328;51.402;0.016;2022-10-29T02:50:00;7.45;;;1.42;;
24901;SDS011;31328;51.402;0.016;2022-10-29T02:52:27;5.20;;;1.20;;
24901;SDS011;31328;51.402;0.016;2022-10-29T02:54:53;4.43;;;0.80;;
24901;SDS011;31328;51.402;0.016;2022-10-29T02:57:19;8.32;;;1.45;;
24901;SDS011;31328;51.402;0.016;2022-10-29T02:59:45;7.68;;;2.17;;
24901;SDS011;31328;51.402;0.016;2022-10-29T03:02:12;6.60;;;1.20;;
24901;SDS011;31328;51.402;0.016;2022-10-29T03:04:38;8.30;;;1.20;;
24901;SDS011;31328;51.402;0.016;2022-10-29T03:07:06;5.35;;;0.95;;
24901;SDS011;31328;51.402;0.016;2022-10-29T03:09:32;6.68;;;1.40;;
24901;SDS011;31328;51.402;0.016;2022-10-29T03:11:58;3.88;;;1.00;;
24901;SDS011;31328;51.402;0.016;2022-10-29T03:14:24;5.03;;;1.40;;
24901;SDS011;31328;51.402;0.016;2022-10-29T03:16:51;5.57;;;1.00;;
24901;SDS011;31328;51.402;0.016;2022-10-29T03:19:17;4.05;;;1.20;;
24901;SDS011;31328;51.402;0.016;2022-10-29T03:21:43;3.40;;;1.58;;
24901;SDS011;31328;51.402;0.016;2022-10-29T03:24:09;3.97;;;1.10;;
24901;SDS011;31328;51.402;0.016;2022-10-29T03:26:36;4.88;;;1.85;;
24901;SDS011;31328;51.402;0.016;2022-10-29T03:29:02;4.63;;;1.05;;
24901;SDS011;31328;51.402;0.016;2022-10-29T03:31:28;5.50;;;1.73;;
24901;SDS011;31328;51.402;0.016;2022-10-29T03:33:55;2.08;;;0.98;;
24901;SDS011;31328;51.402;0.016;2022-10-29T03:36:21;3.33;;;1.00;;
24901;SDS011;31328;51.402;0.016;2022-10-29T03:38:47;5.00;;;1.20;;
24901;SDS011;31328;51.402;0.016;2022-10-29T03:41:14;6.63;;;1.65;;
24901;SDS011;31328;51.402;0.016;2022-10-29T03:43:40;4.45;;;1.30;;
24901;SDS011;31328;51.402;0.016;2022-10-29T03:46:06;6.00;;;1.10;;
24901;SDS011;31328;51.402;0.016;2022-10-29T03:48:33;4.55;;;1.00;;
24901;SDS011;31328;51.402;0.016;2022-10-29T03:51:00;5.75;;;1.67;;
24901;SDS011;31328;51.402;0.016;2022-10-29T03:53:30;5.53;;;1.10;;
24901;SDS011;31328;51.402;0.016;2022-10-29T03:55:57;6.93;;;1.17;;
24901;SDS011;31328;51.402;0.016;2022-10-29T03:58:24;3.47;;;0.80;;
24901;SDS011;31328;51.402;0.016;2022-10-29T04:00:55;6.63;;;0.90;;
24901;SDS011;31328;51.402;0.016;2022-10-29T04:03:24;3.40;;;0.90;;
24901;SDS011;31328;51.402;0.016;2022-10-29T04:05:51;2.83;;;1.00;;
24901;SDS011;31328;51.402;0.016;2022-10-29T04:08:19;4.60;;;0.95;;
24901;SDS011;31328;51.402;0.016;2022-10-29T04:10:45;4.35;;;0.93;;
24901;SDS011;31328;51.402;0.016;2022-10-29T04:13:13;5.47;;;1.15;;
24901;SDS011;31328;51.402;0.016;2022-10-29T04:15:40;4.80;;;1.25;;
24901;SDS011;31328;51.402;0.016;2022-10-29T04:18:07;5.00;;;1.50;;
24901;SDS011;31328;51.402;0.016;2022-10-29T04:20:34;3.30;;;1.65;;
24901;SDS011;31328;51.402;0.016;2022-10-29T04:23:01;8.20;;;1.33;;
24901;SDS011;31328;51.402;0.016;2022-10-29T04:25:28;3.25;;;0.90;;
24901;SDS011;31328;51.402;0.016;2022-10-29T04:27:54;2.97;;;1.20;;
24901;SDS011;31328;51.402;0.016;2022-10-29T04:30:22;4.50;;;1.75;;
24901;SDS011;31328;51.402;0.016;2022-10-29T04:32:49;5.45;;;1.23;;
24901;SDS011;31328;51.402;0.016;2022-10-29T04:35:15;4.63;;;1.88;;
24901;SDS011;31328;51.402;0.016;2022-10-29T04:37:41;3.55;;;1.20;;
24901;SDS011;31328;51.402;0.016;2022-10-29T04:40:08;7.15;;;1.58;;
24901;SDS011;31328;51.402;0.016;2022-10-29T04:42:38;5.70;;;1.70;;
24901;SDS011;31328;51.402;0.016;2022-10-29T04:45:04;6.97;;;1.10;;
24901;SDS011;31328;51.402;0.016;2022-10-29T04:47:32;4.28;;;1.00;;
24901;SDS011;31328;51.402;0.016;2022-10-29T04:49:59;4.55;;;1.10;;
24901;SDS011;31328;51.402;0.016;2022-10-29T04:52:25;3.50;;;1.13;;
24901;SDS011;31328;51.402;0.016;2022-10-29T04:54:51;4.90;;;0.88;;
24901;SDS011;31328;51.402;0.016;2022-10-29T04:57:17;6.15;;;1.20;;
24901;SDS011;31328;51.402;0.016;2022-10-29T04:59:44;4.32;;;1.77;;
24901;SDS011;31328;51.402;0.016;2022-10-29T05:02:11;3.92;;;0.98;;
24901;SDS011;31328;51.402;0.016;2022-10-29T05:04:37;4.15;;;1.70;;
24901;SDS011;31328;51.402;0.016;2022-10-29T05:07:03;4.75;;;1.67;;
24901;SDS011;31328;51.402;0.016;2022-10-29T05:09:30;4.80;;;1.38;;
24901;SDS011;31328;51.402;0.016;2022-10-29T05:11:56;4.30;;;1.30;;
24901;SDS011;31328;51.402;0.016;2022-10-29T05:14:22;3.13;;;1.52;;
24901;SDS011;31328;51.402;0.016;2022-10-29T05:16:48;3.42;;;1.02;;
24901;SDS011;31328;51.402;0.016;2022-10-29T05:19:15;5.95;;;1.50;;
24901;SDS011;31328;51.402;0.016;2022-10-29T05:21:41;6.05;;;1.92;;
24901;SDS011;31328;51.402;0.016;2022-10-29T05:24:07;5.65;;;1.52;;
24901;SDS011;31328;51.402;0.016;2022-10-29T05:26:34;5.30;;;2.22;;
24901;SDS011;31328;51.402;0.016;2022-10-29T05:29:00;5.85;;;1.48;;
24901;SDS011;31328;51.402;0.016;2022-10-29T05:31:26;7.68;;;1.48;;
24901;SDS011;31328;51.402;0.016;2022-10-29T05:33:52;4.45;;;2.20;;
24901;SDS011;31328;51.402;0.016;2022-10-29T05:36:19;6.45;;;1.80;;
24901;SDS011;31328;51.402;0.016;2022-10-29T05:38:45;4.15;;;1.20;;
24901;SDS011;31328;51.402;0.016;2022-10-29T05:41:11;4.13;;;1.42;;
24901;SDS011;31328;51.402;0.016;2022-10-29T05:43:38;7.45;;;1.95;;
24901;SDS011;31328;51.402;0.016;2022-10-29T05:46:04;5.95;;;1.83;;
24901;SDS011;31328;51.402;0.016;2022-10-29T05:48:30;7.75;;;1.33;;
24901;SDS011;31328;51.402;0.016;2022-10-29T05:50:57;5.50;;;1.48;;
24901;SDS011;31328;51.402;0.016;2022-10-29T05:53:23;5.53;;;1.42;;
24901;SDS011;31328;51.402;0.016;2022-10-29T05:55:50;5.80;;;2.33;;
24901;SDS011;31328;51.402;0.016;2022-10-29T05:58:16;5.15;;;1.27;;
24901;SDS011;31328;51.402;0.016;2022-10-29T06:00:43;4.90;;;1.33;;
24901;SDS011;31328;51.402;0.016;2022-10-29T06:03:17;3.92;;;1.23;;
24901;SDS011;31328;51.402;0.016;2022-10-29T06:05:45;3.72;;;1.10;;
24901;SDS011;31328;51.402;0.016;2022-10-29T06:08:12;5.20;;;2.67;;
24901;SDS011;31328;51.402;0.016;2022-10-29T06:10:38;3.97;;;1.80;;
24901;SDS011;31328;51.402;0.016;2022-10-29T06:13:08;3.92;;;1.65;;
24901;SDS011;31328;51.402;0.016;2022-10-29T06:15:38;5.30;;;1.37;;
24901;SDS011;31328;51.402;0.016;2022-10-29T06:18:05;5.63;;;1.60;;
24901;SDS011;31328;51.402;0.016;2022-10-29T06:20:31;5.85;;;1.77;;
24901;SDS011;31328;51.402;0.016;2022-10-29T06:22:58;4.85;;;2.33;;
24901;SDS011;31328;51.402;0.016;2022-10-29T06:25:25;3.90;;;1.67;;
24901;SDS011;31328;51.402;0.016;2022-10-29T06:28:02;6.72;;;2.80;;
24901;SDS011;31328;51.402;0.016;2022-10-29T06:30:31;5.25;;;2.15;;
24901;SDS011;31328;51.402;0.016;2022-10-29T06:32:58;5.85;;;1.80;;
24901;SDS011;31328;51.402;0.016;2022-10-29T06:35:25;5.47;;;1.65;;
24901;SDS011;31328;51.402;0.016;2022-10-29T06:37:52;7.03;;;2.17;;
24901;SDS011;31328;51.402;0.016;2022-10-29T06:40:18;4.07;;;1.45;;
24901;SDS011;31328;51.402;0.016;2022-10-29T06:42:45;3.20;;;1.55;;
24901;SDS011;31328;51.402;0.016;2022-10-29T06:45:11;1.88;;;1.30;;
24901;SDS011;31328;51.402;0.016;2022-10-29T06:47:42;4.88;;;1.65;;
24901;SDS011;31328;51.402;0.016;2022-10-29T06:50:10;2.72;;;1.38;;
24901;SDS011;31328;51.402;0.016;2022-10-29T06:52:37;3.08;;;1.63;;
24901;SDS011;31328;51.402;0.016;2022-10-29T06:55:04;7.20;;;2.28;;
24901;SDS011;31328;51.402;0.016;2022-10-29T06:57:31;6.05;;;1.85;;
24901;SDS011;31328;51.402;0.016;2022-10-29T06:59:57;5.72;;;2.22;;
24901;SDS011;31328;51.402;0.016;2022-10-29T07:02:24;6.28;;;1.35;;
24901;SDS011;31328;51.402;0.016;2022-10-29T07:04:50;3.72;;;1.73;;
24901;SDS011;31328;51.402;0.016;2022-10-29T07:07:16;3.97;;;1.40;;
24901;SDS011;31328;51.402;0.016;2022-10-29T07:09:43;6.15;;;1.95;;
24901;SDS011;31328;51.402;0.016;2022-10-29T07:12:09;7.97;;;2.40;;
24901;SDS011;31328;51.402;0.016;2022-10-29T07:14:36;6.30;;;1.88;;
24901;SDS011;31328;51.402;0.016;2022-10-29T07:17:02;2.58;;;1.73;;
24901;SDS011;31328;51.402;0.016;2022-10-29T07:19:28;6.65;;;2.25;;
24901;SDS011;31328;51.402;0.016;2022-10-29T07:21:55;6.78;;;2.78;;
24901;SDS011;31328;51.402;0.016;2022-10-29T07:24:21;4.50;;;1.80;;
24901;SDS011;31328;51.402;0.016;2022-10-29T07:26:47;8.07;;;2.38;;
24901;SDS011;31328;51.402;0.016;2022-10-29T07:29:13;5.95;;;2.10;;
24901;SDS011;31328;51.402;0.016;2022-10-29T07:31:40;5.38;;;2.70;;
24901;SDS011;31328;51.402;0.016;2022-10-29T07:34:06;5.05;;;2.20;;
24901;SDS011;31328;51.402;0.016;2022-10-29T07:36:32;10.23;;;3.15;;
24901;SDS011;31328;51.402;0.016;2022-10-29T07:38:58;6.10;;;3.22;;
24901;SDS011;31328;51.402;0.016;2022-10-29T07:41:27;6.32;;;2.70;;
24901;SDS011;31328;51.402;0.016;2022-10-29T07:43:53;7.15;;;2.30;;
24901;SDS011;31328;51.402;0.016;2022-10-29T07:46:20;8.13;;;2.88;;
24901;SDS011;31328;51.402;0.016;2022-10-29T07:48:46;8.73;;;2.80;;
24901;SDS011;31328;51.402;0.016;2022-10-29T07:51:12;6.63;;;2.80;;
24901;SDS011;31328;51.402;0.016;2022-10-29T07:53:38;6.80;;;2.80;;
24901;SDS011;31328;51.402;0.016;2022-10-29T07:56:05;5.45;;;3.03;;
24901;SDS011;31328;51.402;0.016;2022-10-29T07:58:31;7.78;;;2.58;;
24901;SDS011;31328;51.402;0.016;2022-10-29T08:00:58;6.05;;;3.40;;
24901;SDS011;31328;51.402;0.016;2022-10-29T08:03:25;10.02;;;2.83;;
24901;SDS011;31328;51.402;0.016;2022-10-29T08:05:51;6.13;;;2.95;;
24901;SDS011;31328;51.402;0.016;2022-10-29T08:08:21;11.15;;;3.42;;
24901;SDS011;31328;51.402;0.016;2022-10-29T08:10:48;7.45;;;3.15;;
24901;SDS011;31328;51.402;0.016;2022-10-29T08:13:14;5.75;;;2.78;;
24901;SDS011;31328;51.402;0.016;2022-10-29T08:15:44;9.88;;;3.63;;
24901;SDS011;31328;51.402;0.016;2022-10-29T08:18:15;12.25;;;3.60;;
24901;SDS011;31328;51.402;0.016;2022-10-29T08:20:42;4.78;;;2.85;;
24901;SDS011;31328;51.402;0.016;2022-10-29T08:23:09;7.05;;;3.10;;
24901;SDS011;31328;51.402;0.016;2022-10-29T08:25:36;9.20;;;4.03;;
24901;SDS011;31328;51.402;0.016;2022-10-29T08:28:06;6.65;;;2.85;;
24901;SDS011;31328;51.402;0.016;2022-10-29T08:30:34;10.90;;;3.85;;
24901;SDS011;31328;51.402;0.016;2022-10-29T08:33:01;7.18;;;2.55;;
24901;SDS011;31328;51.402;0.016;2022-10-29T08:35:29;7.03;;;3.10;;
24901;SDS011;31328;51.402;0.016;2022-10-29T08:37:57;9.82;;;3.42;;
24901;SDS011;31328;51.402;0.016;2022-10-29T08:45:47;15.50;;;6.38;;
24901;SDS011;31328;51.402;0.016;2022-10-29T08:48:35;19.63;;;7.00;;
24901;SDS011;31328;51.402;0.016;2022-10-29T08:51:30;8.82;;;4.63;;
24901;SDS011;31328;51.402;0.016;2022-10-29T08:54:00;11.35;;;4.22;;
24901;SDS011;31328;51.402;0.016;2022-10-29T08:56:28;12.70;;;3.97;;
24901;SDS011;31328;51.402;0.016;2022-10-29T09:01:33;8.95;;;2.97;;
24901;SDS011;31328;51.402;0.016;2022-10-29T09:04:00;9.93;;;3.65;;
24901;SDS011;31328;51.402;0.016;2022-10-29T09:06:43;6.03;;;2.95;;
24901;SDS011;31328;51.402;0.016;2022-10-29T09:09:29;9.05;;;3.47;;
24901;SDS011;31328;51.402;0.016;2022-10-29T09:20:42;10.13;;;3.55;;
24901;SDS011;31328;51.402;0.016;2022-10-29T09:29:05;8.25;;;3.47;;
24901;SDS011;31328;51.402;0.016;2022-10-29T09:31:55;11.32;;;3.83;;
24901;SDS011;31328;51.402;0.016;2022-10-29T09:34:45;7.43;;;2.95;;
24901;SDS011;31328;51.402;0.016;2022-10-29T09:37:15;7.18;;;3.45;;
24901;SDS011;31328;51.402;0.016;2022-10-29T09:39:48;9.38;;;3.45;;
24901;SDS011;31328;51.402;0.016;2022-10-29T09:42:20;4.57;;;2.97;;
24901;SDS011;31328;51.402;0.016;2022-10-29T09:44:51;8.95;;;3.45;;
24901;SDS011;31328;51.402;0.016;2022-10-29T09:52:34;7.55;;;3.10;;
24901;SDS011;31328;51.402;0.016;2022-10-29T09:55:04;6.63;;;2.90;;
24901;SDS011;31328;51.402;0.016;2022-10-29T09:57:35;8.45;;;3.10;;
24901;SDS011;31328;51.402;0.016;2022-10-29T10:00:11;6.57;;;3.50;;
24901;SDS011;31328;51.402;0.016;2022-10-29T10:02:43;7.07;;;2.63;;
24901;SDS011;31328;51.402;0.016;2022-10-29T10:05:14;11.30;;;3.35;;
24901;SDS011;31328;51.402;0.016;2022-10-29T10:08:03;6.07;;;3.10;;
24901;SDS011;31328;51.402;0.016;2022-10-29T10:10:52;7.03;;;2.70;;
24901;SDS011;31328;51.402;0.016;2022-10-29T10:13:21;5.00;;;2.38;;
24901;SDS011;31328;51.402;0.016;2022-10-29T10:15:51;10.05;;;3.80;;
24901;SDS011;31328;51.402;0.016;2022-10-29T10:18:23;9.32;;;2.85;;
24901;SDS011;31328;51.402;0.016;2022-10-29T10:23:50;5.93;;;2.72;;
24901;SDS011;31328;51.402;0.016;2022-10-29T10:29:14;9.88;;;3.22;;
24901;SDS011;31328;51.402;0.016;2022-10-29T10:31:48;5.43;;;2.58;;
24901;SDS011;31328;51.402;0.016;2022-10-29T10:34:16;7.15;;;3.72;;
24901;SDS011;31328;51.402;0.016;2022-10-29T10:36:49;5.03;;;2.25;;
24901;SDS011;31328;51.402;0.016;2022-10-29T10:39:19;8.45;;;2.60;;
24901;SDS011;31328;51.402;0.016;2022-10-29T10:41:59;4.72;;;2.40;;
24901;SDS011;31328;51.402;0.016;2022-10-29T10:44:28;8.55;;;3.05;;
24901;SDS011;31328;51.402;0.016;2022-10-29T10:46:57;7.55;;;3.42;;
24901;SDS011;31328;51.402;0.016;2022-10-29T10:49:33;9.13;;;3.97;;
24901;SDS011;31328;51.402;0.016;2022-10-29T10:52:14;9.55;;;3.50;;
24901;SDS011;31328;51.402;0.016;2022-10-29T10:54:44;9.25;;;3.25;;
24901;SDS011;31328;51.402;0.016;2022-10-29T10:57:20;8.13;;;2.88;;
24901;SDS011;31328;51.402;0.016;2022-10-29T10:59:53;8.90;;;3.42;;
24901;SDS011;31328;51.402;0.016;2022-10-29T11:04:59;5.63;;;3.38;;
24901;SDS011;31328;51.402;0.016;2022-10-29T11:07:58;7.95;;;3.50;;
24901;SDS011;31328;51.402;0.016;2022-10-29T11:10:29;7.55;;;3.85;;
24901;SDS011;31328;51.402;0.016;2022-10-29T11:13:00;7.97;;;3.03;;
24901;SDS011;31328;51.402;0.016;2022-10-29T11:15:37;6.10;;;3.08;;
24901;SDS011;31328;51.402;0.016;2022-10-29T11:18:13;7.13;;;2.83;;
24901;SDS011;31328;51.402;0.016;2022-10-29T11:20:47;6.25;;;3.05;;
24901;SDS011;31328;51.402;0.016;2022-10-29T11:23:26;9.20;;;2.85;;
24901;SDS011;31328;51.402;0.016;2022-10-29T11:26:05;8.32;;;3.42;;
24901;SDS011;31328;51.402;0.016;2022-10-29T11:31:46;5.95;;;3.15;;
24901;SDS011;31328;51.402;0.016;2022-10-29T11:37:16;5.45;;;2.72;;
24901;SDS011;31328;51.402;0.016;2022-10-29T11:40:13;8.35;;;3.35;;
24901;SDS011;31328;51.402;0.016;2022-10-29T11:42:50;11.43;;;2.55;;
24901;SDS011;31328;51.402;0.016;2022-10-29T11:45:18;7.40;;;2.45;;
24901;SDS011;31328;51.402;0.016;2022-10-29T11:48:00;8.60;;;3.10;;
24901;SDS011;31328;51.402;0.016;2022-10-29T11:53:40;7.50;;;3.17;;
24901;SDS011;31328;51.402;0.016;2022-10-29T11:56:35;7.07;;;3.05;;
24901;SDS011;31328;51.402;0.016;2022-10-29T12:00:21;6.80;;;2.83;;
24901;SDS011;31328;51.402;0.016;2022-10-29T12:05:16;5.57;;;3.35;;
24901;SDS011;31328;51.402;0.016;2022-10-29T12:10:44;6.40;;;3.17;;
24901;SDS011;31328;51.402;0.016;2022-10-29T12:21:52;9.00;;;3.45;;
24901;SDS011;31328;51.402;0.016;2022-10-29T12:30:04;6.68;;;3.30;;
24901;SDS011;31328;51.402;0.016;2022-10-29T12:32:35;6.35;;;3.17;;
24901;SDS011;31328;51.402;0.016;2022-10-29T12:40:43;7.47;;;2.58;;
24901;SDS011;31328;51.402;0.016;2022-10-29T12:43:24;8.63;;;2.97;;
24901;SDS011;31328;51.402;0.016;2022-10-29T12:56:23;6.68;;;3.38;;
24901;SDS011;31328;51.402;0.016;2022-10-29T12:58:54;5.30;;;2.60;;
24901;SDS011;31328;51.402;0.016;2022-10-29T13:16:51;9.60;;;3.30;;
24901;SDS011;31328;51.402;0.016;2022-10-29T13:19:24;7.70;;;2.70;;
24901;SDS011;31328;51.402;0.016;2022-10-29T13:24:39;8.52;;;3.25;;
24901;SDS011;31328;51.402;0.016;2022-10-29T13:35:04;6.00;;;2.70;;
24901;SDS011;31328;51.402;0.016;2022-10-29T13:37:46;7.00;;;2.88;;
24901;SDS011;31328;51.402;0.016;2022-10-29T13:46:00;8.30;;;2.75;;
24901;SDS011;31328;51.402;0.016;2022-10-29T13:48:38;7.30;;;3.65;;
24901;SDS011;31328;51.402;0.016;2022-10-29T13:51:06;8.35;;;3.00;;
24901;SDS011;31328;51.402;0.016;2022-10-29T13:56:16;7.53;;;3.05;;
24901;SDS011;31328;51.402;0.016;2022-10-29T13:58:55;8.98;;;3.15;;
24901;SDS011;31328;51.402;0.016;2022-10-29T14:01:25;6.25;;;3.10;;
24901;SDS011;31328;51.402;0.016;2022-10-29T14:04:39;6.55;;;3.47;;
24901;SDS011;31328;51.402;0.016;2022-10-29T14:06:53;4.72;;;3.17;;
24901;SDS011;31328;51.402;0.016;2022-10-29T14:09:35;9.82;;;3.90;;
24901;SDS011;31328;51.402;0.016;2022-10-29T14:12:08;10.85;;;3.40;;
24901;SDS011;31328;51.402;0.016;2022-10-29T14:14:43;11.93;;;4.47;;
24901;SDS011;31328;51.402;0.016;2022-10-29T14:17:20;7.65;;;3.60;;
24901;SDS011;31328;51.402;0.016;2022-10-29T14:19:50;7.38;;;3.00;;
24901;SDS011;31328;51.402;0.016;2022-10-29T14:24:43;7.55;;;3.63;;
24901;SDS011;31328;51.402;0.016;2022-10-29T14:27:12;10.73;;;3.60;;
24901;SDS011;31328;51.402;0.016;2022-10-29T14:29:40;8.27;;;3.60;;
24901;SDS011;31328;51.402;0.016;2022-10-29T14:32:10;5.75;;;3.55;;
24901;SDS011;31328;51.402;0.016;2022-10-29T14:34:40;6.68;;;3.75;;
24901;SDS011;31328;51.402;0.016;2022-10-29T14:37:11;7.80;;;3.75;;
24901;SDS011;31328;51.402;0.016;2022-10-29T14:39:43;8.52;;;4.30;;
24901;SDS011;31328;51.402;0.016;2022-10-29T14:42:20;9.07;;;4.28;;
24901;SDS011;31328;51.402;0.016;2022-10-29T14:45:07;7.80;;;3.70;;
24901;SDS011;31328;51.402;0.016;2022-10-29T14:47:46;6.20;;;3.60;;
24901;SDS011;31328;51.402;0.016;2022-10-29T14:50:24;7.90;;;3.80;;
24901;SDS011;31328;51.402;0.016;2022-10-29T14:52:52;8.32;;;4.28;;
24901;SDS011;31328;51.402;0.016;2022-10-29T14:55:24;9.88;;;4.40;;
24901;SDS011;31328;51.402;0.016;2022-10-29T14:58:02;10.70;;;3.95;;
24901;SDS011;31328;51.402;0.016;2022-10-29T15:00:30;7.35;;;3.70;;
24901;SDS011;31328;51.402;0.016;2022-10-29T15:03:01;6.95;;;3.92;;
24901;SDS011;31328;51.402;0.016;2022-10-29T15:05:34;7.93;;;3.55;;
24901;SDS011;31328;51.402;0.016;2022-10-29T15:08:02;9.23;;;3.33;;
24901;SDS011;31328;51.402;0.016;2022-10-29T15:10:48;7.30;;;3.30;;
24901;SDS011;31328;51.402;0.016;2022-10-29T15:13:29;9.27;;;4.25;;
24901;SDS011;31328;51.402;0.016;2022-10-29T15:15:59;9.18;;;4.45;;
24901;SDS011;31328;51.402;0.016;2022-10-29T15:18:30;8.38;;;4.30;;
24901;SDS011;31328;51.402;0.016;2022-10-29T15:20:59;9.90;;;4.53;;
24901;SDS011;31328;51.402;0.016;2022-10-29T15:26:02;9.05;;;4.20;;
24901;SDS011;31328;51.402;0.016;2022-10-29T15:28:39;5.18;;;3.80;;
24901;SDS011;31328;51.402;0.016;2022-10-29T15:31:17;9.98;;;4.60;;
24901;SDS011;31328;51.402;0.016;2022-10-29T15:33:46;8.55;;;4.47;;
24901;SDS011;31328;51.402;0.016;2022-10-29T15:36:18;7.78;;;4.18;;
24901;SDS011;31328;51.402;0.016;2022-10-29T15:44:24;12.47;;;4.60;;
24901;SDS011;31328;51.402;0.016;2022-10-29T15:46:51;7.78;;;4.68;;
24901;SDS011;31328;51.402;0.016;2022-10-29T15:49:27;7.50;;;4.53;;
24901;SDS011;31328;51.402;0.016;2022-10-29T15:51:54;10.48;;;5.72;;
24901;SDS011;31328;51.402;0.016;2022-10-29T15:54:23;10.95;;;5.28;;
24901;SDS011;31328;51.402;0.016;2022-10-29T15:56:49;10.10;;;4.10;;
24901;SDS011;31328;51.402;0.016;2022-10-29T15:59:17;9.93;;;4.82;;
24901;SDS011;31328;51.402;0.016;2022-10-29T16:01:49;5.05;;;4.15;;
24901;SDS011;31328;51.402;0.016;2022-10-29T16:04:15;9.32;;;4.10;;
24901;SDS011;31328;51.402;0.016;2022-10-29T16:06:42;11.07;;;4.28;;
24901;SDS011;31328;51.402;0.016;2022-10-29T16:09:09;10.23;;;5.32;;
24901;SDS011;31328;51.402;0.016;2022-10-29T16:11:41;12.68;;;5.25;;
24901;SDS011;31328;51.402;0.016;2022-10-29T16:14:07;7.90;;;4.68;;
24901;SDS011;31328;51.402;0.016;2022-10-29T16:16:34;11.50;;;5.20;;
24901;SDS011;31328;51.402;0.016;2022-10-29T16:19:02;7.95;;;5.00;;
24901;SDS011;31328;51.402;0.016;2022-10-29T16:21:28;10.25;;;5.57;;
24901;SDS011;31328;51.402;0.016;2022-10-29T16:23:55;8.23;;;4.55;;
24901;SDS011;31328;51.402;0.016;2022-10-29T16:26:22;12.27;;;5.70;;
24901;SDS011;31328;51.402;0.016;2022-10-29T16:28:50;9.68;;;4.97;;
24901;SDS011;31328;51.402;0.016;2022-10-29T16:31:20;9.82;;;4.78;;
24901;SDS011;31328;51.402;0.016;2022-10-29T16:33:52;14.25;;;4.68;;
24901;SDS011;31328;51.402;0.016;2022-10-29T16:36:21;11.25;;;5.18;;
24901;SDS011;31328;51.402;0.016;2022-10-29T16:38:47;9.93;;;4.38;;
24901;SDS011;31328;51.402;0.016;2022-10-29T16:41:14;8.43;;;4.68;;
24901;SDS011;31328;51.402;0.016;2022-10-29T16:43:42;10.73;;;5.45;;
24901;SDS011;31328;51.402;0.016;2022-10-29T16:46:09;12.93;;;5.75;;
24901;SDS011;31328;51.402;0.016;2022-10-29T16:48:37;10.55;;;5.43;;
24901;SDS011;31328;51.402;0.016;2022-10-29T16:51:04;12.23;;;5.45;;
24901;SDS011;31328;51.402;0.016;2022-10-29T16:53:30;10.05;;;5.00;;
24901;SDS011;31328;51.402;0.016;2022-10-29T16:55:57;14.80;;;5.00;;
24901;SDS011;31328;51.402;0.016;2022-10-29T16:58:23;9.32;;;4.70;;
24901;SDS011;31328;51.402;0.016;2022-10-29T17:00:50;11.60;;;5.00;;
24901;SDS011;31328;51.402;0.016;2022-10-29T17:03:16;12.43;;;5.13;;
24901;SDS011;31328;51.402;0.016;2022-10-29T17:05:44;13.10;;;5.22;;
24901;SDS011;31328;51.402;0.016;2022-10-29T17:08:11;14.27;;;5.32;;
24901;SDS011;31328;51.402;0.016;2022-10-29T17:10:38;8.20;;;5.03;;
24901;SDS011;31328;51.402;0.016;2022-10-29T17:13:04;14.02;;;6.90;;
24901;SDS011;31328;51.402;0.016;2022-10-29T17:15:39;10.52;;;4.82;;
24901;SDS011;31328;51.402;0.016;2022-10-29T17:18:06;8.07;;;4.85;;
24901;SDS011;31328;51.402;0.016;2022-10-29T17:20:32;9.18;;;4.82;;
24901;SDS011;31328;51.402;0.016;2022-10-29T17:22:58;10.23;;;6.05;;
24901;SDS011;31328;51.402;0.016;2022-10-29T17:25:24;8.05;;;5.30;;
24901;SDS011;31328;51.402;0.016;2022-10-29T17:27:51;10.68;;;5.50;;
24901;SDS011;31328;51.402;0.016;2022-10-29T17:30:17;11.57;;;5.00;;
24901;SDS011;31328;51.402;0.016;2022-10-29T17:32:43;12.93;;;5.57;;
24901;SDS011;31328;51.402;0.016;2022-10-29T17:35:09;10.40;;;6.47;;